sensor_id;sensor_type;location;lat;lon;timestamp;temperature;humidity
45409;DHT22;31162;51.076;3.784;2023-07-24T00:00:44;19.10;99.90
45409;DHT22;31162;51.076;3.784;2023-07-24T00:03:10;19.20;99.90
45409;DHT22;31162;51.076;3.784;2023-07-24T00:05:36;19.20;99.90
45409;DHT22;31162;51.076;3.784;2023-07-24T00:08:01;19.20;99.90
45409;DHT22;31162;51.076;3.784;2023-07-24T00:10:27;19.10;99.90
45409;DHT22;31162;51.076;3.784;2023-07-24T00:12:56;19.00;99.90
45409;DHT22;31162;51.076;3.784;2023-07-24T00:15:21;19.00;99.90
45409;DHT22;31162;51.076;3.784;2023-07-24T00:17:47;19.10;99.90
45409;DHT22;31162;51.076;3.784;2023-07-24T00:20:13;19.20;99.90
45409;DHT22;31162;51.076;3.784;2023-07-24T00:22:38;19.10;99.90
45409;DHT22;31162;51.076;3.784;2023-07-24T00:25:04;19.10;99.90
45409;DHT22;31162;51.076;3.784;2023-07-24T00:27:31;19.10;99.90
45409;DHT22;31162;51.076;3.784;2023-07-24T00:29:56;19.00;99.90
45409;DHT22;31162;51.076;3.784;2023-07-24T00:32:22;19.00;99.90
45409;DHT22;31162;51.076;3.784;2023-07-24T00:34:48;19.00;99.90
45409;DHT22;31162;51.076;3.784;2023-07-24T00:37:13;19.00;99.90
45409;DHT22;31162;51.076;3.784;2023-07-24T00:39:39;19.00;99.90
45409;DHT22;31162;51.076;3.784;2023-07-24T00:42:05;19.00;99.90
45409;DHT22;31162;51.076;3.784;2023-07-24T00:44:31;19.00;99.90
45409;DHT22;31162;51.076;3.784;2023-07-24T00:46:56;19.00;99.90
45409;DHT22;31162;51.076;3.784;2023-07-24T00:49:22;19.00;99.90
45409;DHT22;31162;51.076;3.784;2023-07-24T00:51:48;19.00;99.90
45409;DHT22;31162;51.076;3.784;2023-07-24T00:54:16;19.10;99.90
45409;DHT22;31162;51.076;3.784;2023-07-24T00:56:43;19.10;99.90
45409;DHT22;31162;51.076;3.784;2023-07-24T00:59:09;19.00;99.90
45409;DHT22;31162;51.076;3.784;2023-07-24T01:01:35;18.90;99.90
45409;DHT22;31162;51.076;3.784;2023-07-24T01:04:03;18.90;99.90
45409;DHT22;31162;51.076;3.784;2023-07-24T01:06:30;18.90;99.90
45409;DHT22;31162;51.076;3.784;2023-07-24T01:08:56;18.80;99.90
45409;DHT22;31162;51.076;3.784;2023-07-24T01:11:30;18.90;99.90
45409;DHT22;31162;51.076;3.784;2023-07-24T01:14:08;18.80;99.90
45409;DHT22;31162;51.076;3.784;2023-07-24T01:16:41;18.80;99.90
45409;DHT22;31162;51.076;3.784;2023-07-24T01:19:42;18.80;99.90
45409;DHT22;31162;51.076;3.784;2023-07-24T01:25:00;18.70;99.90
45409;DHT22;31162;51.076;3.784;2023-07-24T01:27:27;18.70;99.90
45409;DHT22;31162;51.076;3.784;2023-07-24T01:29:52;18.60;99.90
45409;DHT22;31162;51.076;3.784;2023-07-24T01:32:21;18.60;99.90
45409;DHT22;31162;51.076;3.784;2023-07-24T01:34:47;18.60;99.90
45409;DHT22;31162;51.076;3.784;2023-07-24T01:37:13;18.60;99.90
45409;DHT22;31162;51.076;3.784;2023-07-24T01:39:44;18.60;99.90
45409;DHT22;31162;51.076;3.784;2023-07-24T01:42:10;18.60;99.90
45409;DHT22;31162;51.076;3.784;2023-07-24T01:44:36;18.60;99.90
45409;DHT22;31162;51.076;3.784;2023-07-24T01:47:02;18.50;99.90
45409;DHT22;31162;51.076;3.784;2023-07-24T01:49:30;18.50;99.90
45409;DHT22;31162;51.076;3.784;2023-07-24T01:51:56;18.50;99.90
45409;DHT22;31162;51.076;3.784;2023-07-24T01:54:23;18.40;99.90
45409;DHT22;31162;51.076;3.784;2023-07-24T01:56:48;18.50;99.90
45409;DHT22;31162;51.076;3.784;2023-07-24T01:59:14;18.40;99.90
45409;DHT22;31162;51.076;3.784;2023-07-24T02:01:40;18.40;99.90
45409;DHT22;31162;51.076;3.784;2023-07-24T02:04:06;18.40;99.90
45409;DHT22;31162;51.076;3.784;2023-07-24T02:06:32;18.40;99.90
45409;DHT22;31162;51.076;3.784;2023-07-24T02:08:57;18.40;99.90
45409;DHT22;31162;51.076;3.784;2023-07-24T02:11:23;18.40;99.90
45409;DHT22;31162;51.076;3.784;2023-07-24T02:13:48;18.40;99.90
45409;DHT22;31162;51.076;3.784;2023-07-24T02:16:14;18.40;99.90
45409;DHT22;31162;51.076;3.784;2023-07-24T02:18:42;18.40;99.90
45409;DHT22;31162;51.076;3.784;2023-07-24T02:21:08;18.40;99.90
45409;DHT22;31162;51.076;3.784;2023-07-24T02:23:34;18.40;99.90
45409;DHT22;31162;51.076;3.784;2023-07-24T02:26:00;18.40;99.90
45409;DHT22;31162;51.076;3.784;2023-07-24T02:28:26;18.40;99.90
45409;DHT22;31162;51.076;3.784;2023-07-24T02:30:51;18.40;99.90
45409;DHT22;31162;51.076;3.784;2023-07-24T02:33:21;18.30;99.90
45409;DHT22;31162;51.076;3.784;2023-07-24T02:35:47;18.40;99.90
45409;DHT22;31162;51.076;3.784;2023-07-24T02:38:13;18.40;99.90
45409;DHT22;31162;51.076;3.784;2023-07-24T02:40:40;18.50;99.90
45409;DHT22;31162;51.076;3.784;2023-07-24T02:43:06;18.40;99.90
45409;DHT22;31162;51.076;3.784;2023-07-24T02:45:35;18.40;99.90
45409;DHT22;31162;51.076;3.784;2023-07-24T02:48:01;18.30;99.90
45409;DHT22;31162;51.076;3.784;2023-07-24T02:50:28;18.30;99.90
45409;DHT22;31162;51.076;3.784;2023-07-24T02:52:53;18.30;99.90
45409;DHT22;31162;51.076;3.784;2023-07-24T02:55:19;18.20;99.90
45409;DHT22;31162;51.076;3.784;2023-07-24T02:57:45;18.10;99.90
45409;DHT22;31162;51.076;3.784;2023-07-24T03:00:11;18.00;99.90
45409;DHT22;31162;51.076;3.784;2023-07-24T03:02:37;18.10;99.90
45409;DHT22;31162;51.076;3.784;2023-07-24T03:05:06;18.10;99.90
45409;DHT22;31162;51.076;3.784;2023-07-24T03:07:32;18.00;99.90
45409;DHT22;31162;51.076;3.784;2023-07-24T03:09:57;18.00;99.90
45409;DHT22;31162;51.076;3.784;2023-07-24T03:12:23;18.00;99.90
45409;DHT22;31162;51.076;3.784;2023-07-24T03:14:49;17.80;99.90
45409;DHT22;31162;51.076;3.784;2023-07-24T03:17:15;17.80;99.90
45409;DHT22;31162;51.076;3.784;2023-07-24T03:19:41;17.70;99.90
45409;DHT22;31162;51.076;3.784;2023-07-24T03:22:07;17.70;99.90
45409;DHT22;31162;51.076;3.784;2023-07-24T03:24:33;17.70;99.90
45409;DHT22;31162;51.076;3.784;2023-07-24T03:26:59;17.70;99.90
45409;DHT22;31162;51.076;3.784;2023-07-24T03:29:26;17.70;99.90
45409;DHT22;31162;51.076;3.784;2023-07-24T03:31:51;17.60;99.90
45409;DHT22;31162;51.076;3.784;2023-07-24T03:34:17;17.60;99.90
45409;DHT22;31162;51.076;3.784;2023-07-24T03:36:43;17.60;99.90
45409;DHT22;31162;51.076;3.784;2023-07-24T03:39:12;17.50;99.90
45409;DHT22;31162;51.076;3.784;2023-07-24T03:41:42;17.50;99.90
45409;DHT22;31162;51.076;3.784;2023-07-24T03:44:08;17.60;99.90
45409;DHT22;31162;51.076;3.784;2023-07-24T03:46:34;17.60;99.90
45409;DHT22;31162;51.076;3.784;2023-07-24T03:49:00;17.60;99.90
45409;DHT22;31162;51.076;3.784;2023-07-24T03:51:25;17.60;99.90
45409;DHT22;31162;51.076;3.784;2023-07-24T03:53:51;17.60;99.90
45409;DHT22;31162;51.076;3.784;2023-07-24T03:56:17;17.60;99.90
45409;DHT22;31162;51.076;3.784;2023-07-24T03:58:43;17.60;99.90
45409;DHT22;31162;51.076;3.784;2023-07-24T04:01:08;17.60;99.90
45409;DHT22;31162;51.076;3.784;2023-07-24T04:03:35;17.60;99.90
45409;DHT22;31162;51.076;3.784;2023-07-24T04:06:00;17.60;99.90
45409;DHT22;31162;51.076;3.784;2023-07-24T04:08:26;17.60;99.90
45409;DHT22;31162;51.076;3.784;2023-07-24T04:10:52;17.60;99.90
45409;DHT22;31162;51.076;3.784;2023-07-24T04:13:18;17.50;99.90
45409;DHT22;31162;51.076;3.784;2023-07-24T04:15:45;17.40;99.90
45409;DHT22;31162;51.076;3.784;2023-07-24T04:18:11;17.30;99.90
45409;DHT22;31162;51.076;3.784;2023-07-24T04:20:37;17.30;99.90
45409;DHT22;31162;51.076;3.784;2023-07-24T04:23:02;17.40;99.90
45409;DHT22;31162;51.076;3.784;2023-07-24T04:25:28;17.40;99.90
45409;DHT22;31162;51.076;3.784;2023-07-24T04:27:54;17.40;99.90
45409;DHT22;31162;51.076;3.784;2023-07-24T04:30:20;17.50;99.90
45409;DHT22;31162;51.076;3.784;2023-07-24T04:32:46;17.50;99.90
45409;DHT22;31162;51.076;3.784;2023-07-24T04:35:12;17.60;99.90
45409;DHT22;31162;51.076;3.784;2023-07-24T04:37:37;17.60;99.90
45409;DHT22;31162;51.076;3.784;2023-07-24T04:40:04;17.60;99.90
45409;DHT22;31162;51.076;3.784;2023-07-24T04:42:30;17.70;99.90
45409;DHT22;31162;51.076;3.784;2023-07-24T04:44:55;17.70;99.90
45409;DHT22;31162;51.076;3.784;2023-07-24T04:47:21;17.70;99.90
45409;DHT22;31162;51.076;3.784;2023-07-24T04:49:47;17.80;99.90
45409;DHT22;31162;51.076;3.784;2023-07-24T04:52:12;17.80;99.90
45409;DHT22;31162;51.076;3.784;2023-07-24T04:54:38;17.80;99.90
45409;DHT22;31162;51.076;3.784;2023-07-24T04:57:04;17.80;99.90
45409;DHT22;31162;51.076;3.784;2023-07-24T04:59:30;17.80;99.90
45409;DHT22;31162;51.076;3.784;2023-07-24T05:01:55;17.80;99.90
45409;DHT22;31162;51.076;3.784;2023-07-24T05:04:22;17.70;99.90
45409;DHT22;31162;51.076;3.784;2023-07-24T05:06:47;17.80;99.90
45409;DHT22;31162;51.076;3.784;2023-07-24T05:09:13;17.90;99.90
45409;DHT22;31162;51.076;3.784;2023-07-24T05:11:40;17.80;99.90
45409;DHT22;31162;51.076;3.784;2023-07-24T05:14:05;18.00;99.90
45409;DHT22;31162;51.076;3.784;2023-07-24T05:16:31;18.00;99.90
45409;DHT22;31162;51.076;3.784;2023-07-24T05:18:57;18.10;99.90
45409;DHT22;31162;51.076;3.784;2023-07-24T05:21:22;18.20;99.90
45409;DHT22;31162;51.076;3.784;2023-07-24T05:23:48;18.20;99.90
45409;DHT22;31162;51.076;3.784;2023-07-24T05:26:14;18.20;99.90
45409;DHT22;31162;51.076;3.784;2023-07-24T05:28:39;18.10;99.90
45409;DHT22;31162;51.076;3.784;2023-07-24T05:31:05;18.00;99.90
45409;DHT22;31162;51.076;3.784;2023-07-24T05:33:31;18.00;99.90
45409;DHT22;31162;51.076;3.784;2023-07-24T05:36:01;18.10;99.90
45409;DHT22;31162;51.076;3.784;2023-07-24T05:38:27;18.30;99.90
45409;DHT22;31162;51.076;3.784;2023-07-24T05:40:57;18.40;99.90
45409;DHT22;31162;51.076;3.784;2023-07-24T05:43:23;18.50;99.90
45409;DHT22;31162;51.076;3.784;2023-07-24T05:45:51;18.60;99.90
45409;DHT22;31162;51.076;3.784;2023-07-24T05:48:16;18.60;99.90
45409;DHT22;31162;51.076;3.784;2023-07-24T05:50:42;18.60;99.90
45409;DHT22;31162;51.076;3.784;2023-07-24T05:53:08;18.70;99.90
45409;DHT22;31162;51.076;3.784;2023-07-24T05:55:33;19.20;99.90
45409;DHT22;31162;51.076;3.784;2023-07-24T05:57:59;19.70;99.90
45409;DHT22;31162;51.076;3.784;2023-07-24T06:00:25;20.30;99.90
45409;DHT22;31162;51.076;3.784;2023-07-24T06:02:50;20.70;99.90
45409;DHT22;31162;51.076;3.784;2023-07-24T06:05:16;20.80;99.90
45409;DHT22;31162;51.076;3.784;2023-07-24T06:07:42;20.70;99.90
45409;DHT22;31162;51.076;3.784;2023-07-24T06:10:07;20.30;99.90
45409;DHT22;31162;51.076;3.784;2023-07-24T06:12:33;20.10;99.90
45409;DHT22;31162;51.076;3.784;2023-07-24T06:14:59;20.40;99.90
45409;DHT22;31162;51.076;3.784;2023-07-24T06:17:24;20.70;99.90
45409;DHT22;31162;51.076;3.784;2023-07-24T06:19:50;20.70;99.90
45409;DHT22;31162;51.076;3.784;2023-07-24T06:22:16;20.70;99.90
45409;DHT22;31162;51.076;3.784;2023-07-24T06:24:41;20.50;99.90
45409;DHT22;31162;51.076;3.784;2023-07-24T06:27:07;20.40;99.90
45409;DHT22;31162;51.076;3.784;2023-07-24T06:29:33;20.30;99.90
45409;DHT22;31162;51.076;3.784;2023-07-24T06:31:59;20.10;99.90
45409;DHT22;31162;51.076;3.784;2023-07-24T06:34:24;19.90;99.90
45409;DHT22;31162;51.076;3.784;2023-07-24T06:36:50;19.90;99.90
45409;DHT22;31162;51.076;3.784;2023-07-24T06:39:16;19.80;99.90
45409;DHT22;31162;51.076;3.784;2023-07-24T06:41:41;19.80;99.90
45409;DHT22;31162;51.076;3.784;2023-07-24T06:44:07;19.70;99.90
45409;DHT22;31162;51.076;3.784;2023-07-24T06:46:33;19.80;99.90
45409;DHT22;31162;51.076;3.784;2023-07-24T06:48:59;19.80;99.90
45409;DHT22;31162;51.076;3.784;2023-07-24T06:51:24;19.80;99.90
45409;DHT22;31162;51.076;3.784;2023-07-24T06:53:50;19.50;99.90
45409;DHT22;31162;51.076;3.784;2023-07-24T06:56:15;19.40;99.90
45409;DHT22;31162;51.076;3.784;2023-07-24T06:58:44;19.20;99.90
45409;DHT22;31162;51.076;3.784;2023-07-24T07:01:10;19.10;99.90
45409;DHT22;31162;51.076;3.784;2023-07-24T07:03:35;18.90;99.90
45409;DHT22;31162;51.076;3.784;2023-07-24T07:06:01;18.80;99.90
45409;DHT22;31162;51.076;3.784;2023-07-24T07:08:31;18.70;99.90
45409;DHT22;31162;51.076;3.784;2023-07-24T07:10:57;18.60;99.90
45409;DHT22;31162;51.076;3.784;2023-07-24T07:13:23;18.60;99.90
45409;DHT22;31162;51.076;3.784;2023-07-24T07:15:49;18.50;99.90
45409;DHT22;31162;51.076;3.784;2023-07-24T07:18:17;18.40;99.90
45409;DHT22;31162;51.076;3.784;2023-07-24T07:20:50;18.30;99.90
45409;DHT22;31162;51.076;3.784;2023-07-24T07:23:16;18.40;99.90
45409;DHT22;31162;51.076;3.784;2023-07-24T07:25:42;18.50;99.90
45409;DHT22;31162;51.076;3.784;2023-07-24T07:28:13;18.50;99.90
45409;DHT22;31162;51.076;3.784;2023-07-24T07:30:39;18.70;99.90
45409;DHT22;31162;51.076;3.784;2023-07-24T07:33:05;19.00;99.90
45409;DHT22;31162;51.076;3.784;2023-07-24T07:35:35;19.20;99.90
45409;DHT22;31162;51.076;3.784;2023-07-24T07:38:02;19.30;99.90
45409;DHT22;31162;51.076;3.784;2023-07-24T07:40:28;19.50;99.90
45409;DHT22;31162;51.076;3.784;2023-07-24T07:42:54;19.70;99.90
45409;DHT22;31162;51.076;3.784;2023-07-24T07:45:23;20.10;99.90
45409;DHT22;31162;51.076;3.784;2023-07-24T07:47:49;20.40;99.90
45409;DHT22;31162;51.076;3.784;2023-07-24T07:50:15;21.00;99.90
45409;DHT22;31162;51.076;3.784;2023-07-24T07:52:41;21.50;99.90
45409;DHT22;31162;51.076;3.784;2023-07-24T07:55:07;22.20;99.90
45409;DHT22;31162;51.076;3.784;2023-07-24T07:57:37;22.50;99.90
45409;DHT22;31162;51.076;3.784;2023-07-24T08:00:03;22.60;99.90
45409;DHT22;31162;51.076;3.784;2023-07-24T08:02:29;22.60;99.90
45409;DHT22;31162;51.076;3.784;2023-07-24T08:04:55;22.80;99.90
45409;DHT22;31162;51.076;3.784;2023-07-24T08:07:21;23.10;99.90
45409;DHT22;31162;51.076;3.784;2023-07-24T08:09:47;23.10;99.90
45409;DHT22;31162;51.076;3.784;2023-07-24T08:12:12;23.10;99.90
45409;DHT22;31162;51.076;3.784;2023-07-24T08:14:38;23.20;99.90
45409;DHT22;31162;51.076;3.784;2023-07-24T08:17:04;23.10;99.90
45409;DHT22;31162;51.076;3.784;2023-07-24T08:19:29;23.20;99.90
45409;DHT22;31162;51.076;3.784;2023-07-24T08:21:55;23.20;99.90
45409;DHT22;31162;51.076;3.784;2023-07-24T08:24:21;23.40;99.90
45409;DHT22;31162;51.076;3.784;2023-07-24T08:26:46;23.40;99.90
45409;DHT22;31162;51.076;3.784;2023-07-24T08:29:12;23.20;99.90
45409;DHT22;31162;51.076;3.784;2023-07-24T08:31:38;23.30;99.90
45409;DHT22;31162;51.076;3.784;2023-07-24T08:34:03;23.40;99.90
45409;DHT22;31162;51.076;3.784;2023-07-24T08:36:32;23.40;99.90
45409;DHT22;31162;51.076;3.784;2023-07-24T08:38:57;23.20;99.90
45409;DHT22;31162;51.076;3.784;2023-07-24T08:41:23;23.30;99.90
45409;DHT22;31162;51.076;3.784;2023-07-24T08:43:49;23.70;99.90
45409;DHT22;31162;51.076;3.784;2023-07-24T08:46:19;24.30;99.90
45409;DHT22;31162;51.076;3.784;2023-07-24T08:48:45;24.90;99.90
45409;DHT22;31162;51.076;3.784;2023-07-24T08:51:12;25.50;99.90
45409;DHT22;31162;51.076;3.784;2023-07-24T08:53:40;26.10;99.90
45409;DHT22;31162;51.076;3.784;2023-07-24T08:56:08;26.60;99.90
45409;DHT22;31162;51.076;3.784;2023-07-24T08:58:34;26.80;99.90
45409;DHT22;31162;51.076;3.784;2023-07-24T09:01:01;27.00;99.90
45409;DHT22;31162;51.076;3.784;2023-07-24T09:03:27;27.60;99.90
45409;DHT22;31162;51.076;3.784;2023-07-24T09:05:54;29.90;99.90
45409;DHT22;31162;51.076;3.784;2023-07-24T09:08:48;32.90;99.90
45409;DHT22;31162;51.076;3.784;2023-07-24T09:11:14;33.60;99.90
45409;DHT22;31162;51.076;3.784;2023-07-24T09:13:43;34.10;99.90
45409;DHT22;31162;51.076;3.784;2023-07-24T09:16:20;33.90;99.90
45409;DHT22;31162;51.076;3.784;2023-07-24T09:18:45;35.30;99.90
45409;DHT22;31162;51.076;3.784;2023-07-24T09:21:11;36.00;98.30
45409;DHT22;31162;51.076;3.784;2023-07-24T09:23:38;36.50;97.10
45409;DHT22;31162;51.076;3.784;2023-07-24T09:26:08;35.60;95.80
45409;DHT22;31162;51.076;3.784;2023-07-24T09:28:36;36.30;95.30
45409;DHT22;31162;51.076;3.784;2023-07-24T09:31:02;38.00;94.00
45409;DHT22;31162;51.076;3.784;2023-07-24T09:33:35;38.90;93.10
45409;DHT22;31162;51.076;3.784;2023-07-24T09:36:05;39.60;91.70
45409;DHT22;31162;51.076;3.784;2023-07-24T09:38:33;40.20;90.40
45409;DHT22;31162;51.076;3.784;2023-07-24T09:41:01;39.90;88.20
45409;DHT22;31162;51.076;3.784;2023-07-24T09:43:28;38.80;88.80
45409;DHT22;31162;51.076;3.784;2023-07-24T09:45:55;37.90;89.50
45409;DHT22;31162;51.076;3.784;2023-07-24T09:48:24;37.30;88.70
45409;DHT22;31162;51.076;3.784;2023-07-24T09:50:56;36.10;89.90
45409;DHT22;31162;51.076;3.784;2023-07-24T09:53:43;34.50;90.60
45409;DHT22;31162;51.076;3.784;2023-07-24T09:56:09;33.40;91.70
45409;DHT22;31162;51.076;3.784;2023-07-24T09:58:39;33.10;91.00
45409;DHT22;31162;51.076;3.784;2023-07-24T10:01:10;33.00;91.70
45409;DHT22;31162;51.076;3.784;2023-07-24T10:03:39;33.00;91.20
45409;DHT22;31162;51.076;3.784;2023-07-24T10:06:05;32.80;90.80
45409;DHT22;31162;51.076;3.784;2023-07-24T10:08:31;32.50;91.30
45409;DHT22;31162;51.076;3.784;2023-07-24T10:11:00;32.30;91.40
45409;DHT22;31162;51.076;3.784;2023-07-24T10:13:27;32.00;92.00
45409;DHT22;31162;51.076;3.784;2023-07-24T10:15:53;31.80;92.00
45409;DHT22;31162;51.076;3.784;2023-07-24T10:18:26;31.80;92.20
45409;DHT22;31162;51.076;3.784;2023-07-24T10:21:01;32.30;92.50
45409;DHT22;31162;51.076;3.784;2023-07-24T10:23:27;32.40;91.40
45409;DHT22;31162;51.076;3.784;2023-07-24T10:25:53;32.20;91.10
45409;DHT22;31162;51.076;3.784;2023-07-24T10:28:19;31.80;91.90
45409;DHT22;31162;51.076;3.784;2023-07-24T10:30:45;31.70;91.20
45409;DHT22;31162;51.076;3.784;2023-07-24T10:33:20;31.60;91.80
45409;DHT22;31162;51.076;3.784;2023-07-24T10:36:09;31.30;92.70
45409;DHT22;31162;51.076;3.784;2023-07-24T10:38:41;30.30;92.60
45409;DHT22;31162;51.076;3.784;2023-07-24T10:41:07;30.20;93.90
45409;DHT22;31162;51.076;3.784;2023-07-24T10:43:44;30.30;93.30
45409;DHT22;31162;51.076;3.784;2023-07-24T10:46:11;29.90;93.10
45409;DHT22;31162;51.076;3.784;2023-07-24T10:48:37;30.00;93.00
45409;DHT22;31162;51.076;3.784;2023-07-24T10:51:10;30.00;93.70
45409;DHT22;31162;51.076;3.784;2023-07-24T10:53:48;29.50;93.40
45409;DHT22;31162;51.076;3.784;2023-07-24T10:56:15;29.60;93.90
45409;DHT22;31162;51.076;3.784;2023-07-24T10:58:41;29.70;93.80
45409;DHT22;31162;51.076;3.784;2023-07-24T11:01:08;29.80;93.60
45409;DHT22;31162;51.076;3.784;2023-07-24T11:03:38;29.80;93.10
45409;DHT22;31162;51.076;3.784;2023-07-24T11:06:05;29.60;93.50
45409;DHT22;31162;51.076;3.784;2023-07-24T11:08:37;29.80;93.90
45409;DHT22;31162;51.076;3.784;2023-07-24T11:11:05;30.50;93.00
45409;DHT22;31162;51.076;3.784;2023-07-24T11:13:31;30.50;93.10
45409;DHT22;31162;51.076;3.784;2023-07-24T11:16:04;30.70;93.00
45409;DHT22;31162;51.076;3.784;2023-07-24T11:18:30;31.50;92.90
45409;DHT22;31162;51.076;3.784;2023-07-24T11:20:56;31.60;92.20
45409;DHT22;31162;51.076;3.784;2023-07-24T11:23:23;31.00;92.30
45409;DHT22;31162;51.076;3.784;2023-07-24T11:25:53;30.60;92.80
45409;DHT22;31162;51.076;3.784;2023-07-24T11:28:20;30.40;93.20
45409;DHT22;31162;51.076;3.784;2023-07-24T11:30:45;30.70;93.00
45409;DHT22;31162;51.076;3.784;2023-07-24T11:33:14;31.10;92.10
45409;DHT22;31162;51.076;3.784;2023-07-24T11:35:41;30.80;92.20
45409;DHT22;31162;51.076;3.784;2023-07-24T11:38:10;30.30;93.00
45409;DHT22;31162;51.076;3.784;2023-07-24T11:40:43;29.80;93.40
45409;DHT22;31162;51.076;3.784;2023-07-24T11:43:36;29.20;93.50
45409;DHT22;31162;51.076;3.784;2023-07-24T11:46:10;28.30;94.30
45409;DHT22;31162;51.076;3.784;2023-07-24T11:48:41;27.60;94.60
45409;DHT22;31162;51.076;3.784;2023-07-24T11:51:07;27.00;95.60
45409;DHT22;31162;51.076;3.784;2023-07-24T11:53:32;26.20;96.50
45409;DHT22;31162;51.076;3.784;2023-07-24T11:55:59;25.90;97.80
45409;DHT22;31162;51.076;3.784;2023-07-24T11:58:30;26.50;97.60
45409;DHT22;31162;51.076;3.784;2023-07-24T12:00:56;27.40;96.10
45409;DHT22;31162;51.076;3.784;2023-07-24T12:03:25;28.10;96.00
45409;DHT22;31162;51.076;3.784;2023-07-24T12:05:51;29.00;95.30
45409;DHT22;31162;51.076;3.784;2023-07-24T12:08:18;28.30;94.50
45409;DHT22;31162;51.076;3.784;2023-07-24T12:10:44;27.90;95.60
45409;DHT22;31162;51.076;3.784;2023-07-24T12:13:10;27.20;96.10
45409;DHT22;31162;51.076;3.784;2023-07-24T12:15:36;26.70;97.00
45409;DHT22;31162;51.076;3.784;2023-07-24T12:18:04;26.40;97.80
45409;DHT22;31162;51.076;3.784;2023-07-24T12:20:32;26.00;98.70
45409;DHT22;31162;51.076;3.784;2023-07-24T12:22:59;25.80;99.90
45409;DHT22;31162;51.076;3.784;2023-07-24T12:25:25;25.70;99.90
45409;DHT22;31162;51.076;3.784;2023-07-24T12:27:50;25.30;99.90
45409;DHT22;31162;51.076;3.784;2023-07-24T12:30:16;24.90;99.90
45409;DHT22;31162;51.076;3.784;2023-07-24T12:32:43;24.60;99.90
45409;DHT22;31162;51.076;3.784;2023-07-24T12:35:09;24.40;99.90
45409;DHT22;31162;51.076;3.784;2023-07-24T12:37:35;24.20;99.90
45409;DHT22;31162;51.076;3.784;2023-07-24T12:40:01;24.10;99.90
45409;DHT22;31162;51.076;3.784;2023-07-24T12:42:26;24.10;99.90
45409;DHT22;31162;51.076;3.784;2023-07-24T12:44:52;24.00;99.90
45409;DHT22;31162;51.076;3.784;2023-07-24T12:47:18;24.10;99.90
45409;DHT22;31162;51.076;3.784;2023-07-24T12:49:43;24.20;99.90
45409;DHT22;31162;51.076;3.784;2023-07-24T12:52:10;23.90;99.90
45409;DHT22;31162;51.076;3.784;2023-07-24T12:54:36;23.80;99.90
45409;DHT22;31162;51.076;3.784;2023-07-24T12:57:02;23.60;99.90
45409;DHT22;31162;51.076;3.784;2023-07-24T12:59:28;23.60;99.90
45409;DHT22;31162;51.076;3.784;2023-07-24T13:01:53;23.70;99.90
45409;DHT22;31162;51.076;3.784;2023-07-24T13:04:20;23.70;99.90
45409;DHT22;31162;51.076;3.784;2023-07-24T13:06:46;23.50;99.90
45409;DHT22;31162;51.076;3.784;2023-07-24T13:09:11;23.20;99.90
45409;DHT22;31162;51.076;3.784;2023-07-24T13:11:37;22.70;99.90
45409;DHT22;31162;51.076;3.784;2023-07-24T13:14:03;22.10;99.90
45409;DHT22;31162;51.076;3.784;2023-07-24T13:16:28;21.70;99.90
45409;DHT22;31162;51.076;3.784;2023-07-24T13:18:54;21.20;99.90
45409;DHT22;31162;51.076;3.784;2023-07-24T13:21:20;20.90;99.90
45409;DHT22;31162;51.076;3.784;2023-07-24T13:23:46;20.60;99.90
45409;DHT22;31162;51.076;3.784;2023-07-24T13:26:12;20.40;99.90
45409;DHT22;31162;51.076;3.784;2023-07-24T13:28:38;20.20;99.90
45409;DHT22;31162;51.076;3.784;2023-07-24T13:31:20;20.10;99.90
45409;DHT22;31162;51.076;3.784;2023-07-24T13:33:46;19.80;99.90
45409;DHT22;31162;51.076;3.784;2023-07-24T13:36:12;19.80;99.90
45409;DHT22;31162;51.076;3.784;2023-07-24T13:38:38;19.60;99.90
45409;DHT22;31162;51.076;3.784;2023-07-24T13:41:04;19.40;99.90
45409;DHT22;31162;51.076;3.784;2023-07-24T13:43:31;19.40;99.90
45409;DHT22;31162;51.076;3.784;2023-07-24T13:45:57;19.40;99.90
45409;DHT22;31162;51.076;3.784;2023-07-24T13:48:24;19.50;99.90
45409;DHT22;31162;51.076;3.784;2023-07-24T13:50:50;19.60;99.90
45409;DHT22;31162;51.076;3.784;2023-07-24T13:53:15;19.70;99.90
45409;DHT22;31162;51.076;3.784;2023-07-24T13:55:41;19.80;99.90
45409;DHT22;31162;51.076;3.784;2023-07-24T13:58:07;20.00;99.90
45409;DHT22;31162;51.076;3.784;2023-07-24T14:00:32;20.20;99.90
45409;DHT22;31162;51.076;3.784;2023-07-24T14:02:58;20.50;99.90
45409;DHT22;31162;51.076;3.784;2023-07-24T14:05:24;20.90;99.90
45409;DHT22;31162;51.076;3.784;2023-07-24T14:07:49;21.20;99.90
45409;DHT22;31162;51.076;3.784;2023-07-24T14:10:15;21.60;99.90
45409;DHT22;31162;51.076;3.784;2023-07-24T14:12:41;22.00;99.90
45409;DHT22;31162;51.076;3.784;2023-07-24T14:15:07;22.30;99.90
45409;DHT22;31162;51.076;3.784;2023-07-24T14:17:33;22.50;99.90
45409;DHT22;31162;51.076;3.784;2023-07-24T14:20:03;22.70;99.90
45409;DHT22;31162;51.076;3.784;2023-07-24T14:22:29;23.00;99.90
45409;DHT22;31162;51.076;3.784;2023-07-24T14:24:55;23.40;99.90
45409;DHT22;31162;51.076;3.784;2023-07-24T14:27:20;23.70;99.90
45409;DHT22;31162;51.076;3.784;2023-07-24T14:29:46;23.70;99.90
45409;DHT22;31162;51.076;3.784;2023-07-24T14:32:12;23.50;99.90
45409;DHT22;31162;51.076;3.784;2023-07-24T14:34:37;23.60;99.90
45409;DHT22;31162;51.076;3.784;2023-07-24T14:37:04;24.20;99.90
45409;DHT22;31162;51.076;3.784;2023-07-24T14:39:29;24.10;99.90
45409;DHT22;31162;51.076;3.784;2023-07-24T14:41:55;23.90;99.90
45409;DHT22;31162;51.076;3.784;2023-07-24T14:44:21;23.60;99.90
45409;DHT22;31162;51.076;3.784;2023-07-24T14:46:46;23.50;99.90
45409;DHT22;31162;51.076;3.784;2023-07-24T14:49:12;23.90;99.90
45409;DHT22;31162;51.076;3.784;2023-07-24T14:51:37;24.10;99.90
45409;DHT22;31162;51.076;3.784;2023-07-24T14:54:03;23.80;99.90
45409;DHT22;31162;51.076;3.784;2023-07-24T14:56:29;23.70;99.90
45409;DHT22;31162;51.076;3.784;2023-07-24T14:58:54;23.40;99.90
45409;DHT22;31162;51.076;3.784;2023-07-24T15:01:20;23.00;99.90
45409;DHT22;31162;51.076;3.784;2023-07-24T15:03:45;22.70;99.90
45409;DHT22;31162;51.076;3.784;2023-07-24T15:06:11;22.40;99.90
45409;DHT22;31162;51.076;3.784;2023-07-24T15:08:37;22.20;99.90
45409;DHT22;31162;51.076;3.784;2023-07-24T15:11:03;22.20;99.90
45409;DHT22;31162;51.076;3.784;2023-07-24T15:13:31;22.50;99.90
45409;DHT22;31162;51.076;3.784;2023-07-24T15:15:57;22.50;99.90
45409;DHT22;31162;51.076;3.784;2023-07-24T15:18:23;22.60;99.90
45409;DHT22;31162;51.076;3.784;2023-07-24T15:20:49;22.40;99.90
45409;DHT22;31162;51.076;3.784;2023-07-24T15:23:14;22.40;99.90
45409;DHT22;31162;51.076;3.784;2023-07-24T15:25:40;22.50;99.90
45409;DHT22;31162;51.076;3.784;2023-07-24T15:28:06;22.50;99.90
45409;DHT22;31162;51.076;3.784;2023-07-24T15:30:32;22.60;99.90